Weather History for Belmar-Farmingdale, NJ

Change the Weather History Date:

Friday, April 25, 2014

  Actual Average Record
Temperature  
Mean Temperature 48 °F -  
Max Temperature 57 °F 61 °F 75 °F (2011)
Min Temperature 39 °F 43 °F 35 °F (1999)
Degree Days  
Heating Degree Days 17    
Moisture  
Dew Point 25 °F    
Average Humidity 41    
Maximum Humidity 76    
Minimum Humidity 26    
Precipitation  
Precipitation 0.00 in - - ()
Sea Level Pressure  
Sea Level Pressure 29.96 in    
Wind  
Wind Speed 8 mph (ESE)    
Max Wind Speed 15 mph    
Max Gust Speed 21 mph    
Visibility 10 miles    
Events      
Averages and records for this station are not official NWS values.
T = Trace of Precipitation, MM = Missing Value Source: NWS Daily Summary

Daily Weather History Graph

Daily Weather History Graph

Search for Another Location

Airport:

Trip Planner

Search our weather history database for the weather conditions in past years. The results will help you decide how hot, cold, wet, or windy it might be!

Date:

Astronomy

Apr. 25, 2014 Rise Set
Actual Time 6:04 AM EDT 7:45 PM EDT
Civil Twilight 5:35 AM EDT 8:14 PM EDT
Nautical Twilight 5:00 AM EDT 8:49 PM EDT
Astronomical Twilight 4:23 AM EDT 9:26 PM EDT
Moon 3:50 AM EDT (4/25) 4:04 PM EDT (4/25)
Length of Visible Light 14h 39m
Length of Day
13h 41m
Waning Crescent, 15% of the Moon is Illuminated
Apr 25
Waning Crescent
Apr 29
New
May 6
First Quarter
May 14
Full
May 21
Last Quarter

Hourly Weather History & Observations

Time (EDT) Temp. Windchill Dew Point Humidity Pressure Visibility Wind Dir Wind Speed Gust Speed Precip Events Conditions
12:15 AM 50.0 °F - 15.8 °F 26% 30.03 in 10.0 mi NNW 8.1 mph - N/A   Clear
12:35 AM 48.2 °F - 15.8 °F 27% 30.02 in 10.0 mi NNW 9.2 mph - N/A   Clear
12:55 AM 48.2 °F - 17.6 °F 30% 30.03 in 10.0 mi North 8.1 mph - N/A   Clear
1:15 AM 48.2 °F - 17.6 °F 30% 30.02 in 10.0 mi NW 6.9 mph - N/A   Clear
1:35 AM 46.4 °F 42.9 °F 17.6 °F 32% 30.02 in 10.0 mi NNW 6.9 mph - N/A   Clear
1:55 AM 46.4 °F 44.3 °F 17.6 °F 32% 30.03 in 10.0 mi NW 4.6 mph - N/A   Clear
2:15 AM 44.6 °F 40.7 °F 17.6 °F 34% 30.02 in 10.0 mi North 6.9 mph - N/A   Clear
2:35 AM 46.4 °F 41.9 °F 17.6 °F 32% 30.01 in 10.0 mi North 9.2 mph - N/A   Clear
2:55 AM 46.4 °F 42.4 °F 17.6 °F 32% 30.01 in 10.0 mi North 8.1 mph - N/A   Clear
3:15 AM 46.4 °F 42.4 °F 17.6 °F 32% 30.00 in 10.0 mi North 8.1 mph - N/A   Clear
3:35 AM 44.6 °F 41.4 °F 17.6 °F 34% 30.00 in 10.0 mi North 5.8 mph - N/A   Clear
3:55 AM 44.6 °F 41.4 °F 17.6 °F 34% 30.00 in 10.0 mi NNE 5.8 mph - N/A   Clear
4:15 AM 44.6 °F 40.7 °F 17.6 °F 34% 30.00 in 10.0 mi North 6.9 mph - N/A   Clear
4:35 AM 44.6 °F - 19.4 °F 37% 30.01 in 10.0 mi Calm Calm - N/A   Clear
4:55 AM 42.8 °F - 17.6 °F 36% 30.01 in 10.0 mi Calm Calm - N/A   Clear
5:15 AM 39.2 °F 35.9 °F 17.6 °F 42% 30.02 in 10.0 mi West 4.6 mph - N/A   Clear
5:35 AM 39.2 °F 35.9 °F 17.6 °F 42% 30.03 in 10.0 mi WNW 4.6 mph - N/A   Clear
5:55 AM 39.2 °F 37.0 °F 19.4 °F 45% 30.03 in 10.0 mi WNW 3.5 mph - N/A   Clear
6:15 AM 39.2 °F 37.0 °F 19.4 °F 45% 30.04 in 10.0 mi NW 3.5 mph - N/A   Clear
6:35 AM 39.2 °F - 19.4 °F 45% 30.04 in 10.0 mi Calm Calm - N/A   Clear
6:55 AM 41.0 °F 38.0 °F 19.4 °F 42% 30.04 in 10.0 mi NNW 4.6 mph - N/A   Clear
7:15 AM 44.6 °F 43.1 °F 21.2 °F 39% 30.04 in 10.0 mi North 3.5 mph - N/A   Clear
7:35 AM 44.6 °F 43.1 °F 23.0 °F 43% 30.04 in 10.0 mi North 3.5 mph - N/A   Clear
7:55 AM 46.4 °F 44.3 °F 23.0 °F 40% 30.05 in 10.0 mi NW 4.6 mph - N/A   Clear
8:15 AM 48.2 °F - 23.0 °F 37% 30.06 in 10.0 mi Calm Calm - N/A   Clear
8:35 AM 50.0 °F - 23.0 °F 35% 30.05 in 10.0 mi ENE 6.9 mph - N/A   Clear
8:55 AM 51.8 °F - 23.0 °F 33% 30.05 in 10.0 mi East 6.9 mph - N/A   Clear
9:15 AM 53.6 °F - 21.2 °F 28% 30.04 in 10.0 mi ENE 9.2 mph - N/A   Clear
9:35 AM 53.6 °F - 21.2 °F 28% 30.04 in 10.0 mi East 11.5 mph - N/A   Clear
9:55 AM 53.6 °F - 21.2 °F 28% 30.04 in 10.0 mi East 10.4 mph - N/A   Clear
10:15 AM 53.6 °F - 21.2 °F 28% 30.04 in 10.0 mi ESE 10.4 mph - N/A   Clear
10:35 AM 53.6 °F - 21.2 °F 28% 30.03 in 10.0 mi ENE 8.1 mph - N/A   Clear
10:55 AM 55.4 °F - 21.2 °F 26% 30.03 in 10.0 mi East 8.1 mph - N/A   Clear
11:15 AM 55.4 °F - 23.0 °F 29% 30.03 in 10.0 mi SE 9.2 mph - N/A   Scattered Clouds
11:35 AM 55.4 °F - 24.8 °F 31% 30.03 in 10.0 mi ESE 8.1 mph - N/A   Partly Cloudy
11:55 AM 55.4 °F - 24.8 °F 31% 30.02 in 10.0 mi ESE 10.4 mph - N/A   Clear
12:15 PM 55.4 °F - 24.8 °F 31% 30.01 in 10.0 mi East 12.7 mph 18.4 mph N/A   Scattered Clouds
12:35 PM 55.4 °F - 24.8 °F 31% 30.01 in 10.0 mi SE 15.0 mph - N/A   Scattered Clouds
12:55 PM 55.4 °F - 24.8 °F 31% 30.00 in 10.0 mi SSE 11.5 mph 19.6 mph N/A   Clear
1:15 PM 55.4 °F - 24.8 °F 31% 30.00 in 10.0 mi SE 11.5 mph 16.1 mph N/A   Clear
1:35 PM 55.4 °F - 24.8 °F 31% 30.00 in 10.0 mi South 11.5 mph 18.4 mph N/A   Clear
1:55 PM 57.2 °F - 24.8 °F 29% 29.99 in 10.0 mi South 13.8 mph 17.3 mph N/A   Clear
2:15 PM 55.4 °F - 24.8 °F 31% 29.98 in 10.0 mi SSE 12.7 mph 18.4 mph N/A   Clear
2:35 PM 55.4 °F - 24.8 °F 31% 29.96 in 10.0 mi SE 11.5 mph 19.6 mph N/A   Clear
2:55 PM 55.4 °F - 24.8 °F 31% 29.96 in 10.0 mi SSE 12.7 mph 18.4 mph N/A   Clear
3:15 PM 55.4 °F - 26.6 °F 33% 29.94 in 10.0 mi South 10.4 mph 16.1 mph N/A   Partly Cloudy
3:35 PM 55.4 °F - 26.6 °F 33% 29.93 in 10.0 mi SSE 11.5 mph 17.3 mph N/A   Partly Cloudy
3:55 PM 53.6 °F - 26.6 °F 35% 29.92 in 10.0 mi SSE 13.8 mph 20.7 mph N/A   Clear
4:15 PM 53.6 °F - 26.6 °F 35% 29.91 in 10.0 mi SE 15.0 mph 19.6 mph N/A   Clear
4:35 PM 53.6 °F - 26.6 °F 35% 29.89 in 10.0 mi SSE 9.2 mph 18.4 mph N/A   Clear
4:55 PM 53.6 °F - 28.4 °F 38% 29.89 in 10.0 mi SSE 10.4 mph 17.3 mph N/A   Clear
5:15 PM 53.6 °F - 28.4 °F 38% 29.88 in 10.0 mi SSE 13.8 mph 19.6 mph N/A   Clear
5:35 PM 51.8 °F - 28.4 °F 41% 29.87 in 10.0 mi SSE 12.7 mph 18.4 mph N/A   Clear
5:55 PM 51.8 °F - 28.4 °F 41% 29.87 in 10.0 mi South 15.0 mph 18.4 mph N/A   Clear
6:15 PM 51.8 °F - 28.4 °F 41% 29.86 in 10.0 mi SSE 13.8 mph 18.4 mph N/A   Clear
6:35 PM 51.8 °F - 28.4 °F 41% 29.86 in 10.0 mi SSE 12.7 mph 17.3 mph N/A   Partly Cloudy
6:55 PM 50.0 °F - 30.2 °F 47% 29.86 in 10.0 mi SSE 13.8 mph 17.3 mph N/A   Partly Cloudy
7:15 PM 50.0 °F - 33.8 °F 54% 29.86 in 10.0 mi SSE 9.2 mph 16.1 mph N/A   Scattered Clouds
7:35 PM 48.2 °F - 35.6 °F 62% 29.86 in 10.0 mi SSE 6.9 mph - N/A   Mostly Cloudy
7:55 PM 48.2 °F - 35.6 °F 62% 29.87 in 10.0 mi SSE 6.9 mph - N/A   Overcast
8:15 PM 48.2 °F - 35.6 °F 62% 29.88 in 10.0 mi SSW 6.9 mph - N/A   Overcast
8:35 PM 50.0 °F - 35.6 °F 58% 29.88 in 10.0 mi Calm Calm - N/A   Overcast
8:55 PM 50.0 °F - 35.6 °F 58% 29.87 in 10.0 mi SE 4.6 mph - N/A   Overcast
9:15 PM 50.0 °F - 37.4 °F 62% 29.84 in 10.0 mi ESE 8.1 mph - N/A   Overcast
9:35 PM 50.0 °F - 37.4 °F 62% 29.83 in 10.0 mi ESE 5.8 mph - N/A   Overcast
9:55 PM 50.0 °F - 37.4 °F 62% 29.82 in 10.0 mi ESE 6.9 mph - N/A   Overcast
10:15 PM 48.2 °F - 37.4 °F 66% 29.81 in 10.0 mi SE 9.2 mph - N/A   Overcast
10:35 PM 48.2 °F - 39.2 °F 71% 29.80 in 10.0 mi SE 8.1 mph - N/A   Overcast
10:55 PM 48.2 °F - 39.2 °F 71% 29.79 in 10.0 mi ESE 9.2 mph - N/A   Overcast
11:15 PM 48.2 °F - 39.2 °F 71% 29.78 in 10.0 mi East 8.1 mph - N/A   Overcast
11:35 PM 48.2 °F - 39.2 °F 71% 29.76 in 10.0 mi East 8.1 mph - N/A   Overcast
11:55 PM 48.2 °F - 41.0 °F 76% 29.76 in 10.0 mi East 8.1 mph - N/A   Overcast